Campiña-No se requiere un especial cuidado respecto a la situación meteorológica.   -   No hay avisos

Informes METAR

 

LEZL - Sevilla, Spain
Distancia de la estación: ENE 8km
Actualización: 30/10/2020 02:30
Despejado
Despejado
 Viento de variable
Viento: variable 2 km/h
Temperatura: 14°C
Rocío: 10°C
Humedad: 77%
Barómetro: 1023 hPa
Resumen: Despejado
Visibilidad: mayor de 10 km
2020/10/30 01:30 LEZL 300130Z AUTO VRB01KT CAVOK 14/10 Q1023
LEMO - Morón, Spain
Distancia de la estación: SE 43km
Actualización: 30/10/2020 02:30
Despejado
Despejado
 Viento de SE
Viento: SE 7 km/h
Temperatura: 12°C
Rocío: 8°C
Humedad: 77%
Barómetro: 1023 hPa
Resumen: Despejado
Visibilidad: mayor de 10 km
2020/10/30 01:30 LEMO 300130Z 13004KT CAVOK 12/08 Q1023 NOSIG
LEJR - Jeréz, Spain
Distancia de la estación: S 71km
Actualización: 30/10/2020 02:30
Despejado
Despejado
 Viento de variable
Viento: variable 2 km/h
Temperatura: 12°C
Rocío: 9°C
Humedad: 82%
Barómetro: 1023 hPa
Resumen: Despejado
Visibilidad: mayor de 10 km
2020/10/30 01:30 LEJR 300130Z AUTO VRB01KT CAVOK 12/09 Q1023
 
LERT - Rota, Spain
Distancia de la estación: SSO 89km
Actualización: 30/10/2020 02:30
Despejado
Despejado
 Viento de ENE
Viento: ENE 9 km/h
Temperatura: 14°C
Rocío: 6°C
Humedad: 59%
Barómetro: 1023 hPa
Resumen: Despejado
Visibilidad: mayor de 10 km
2020/10/30 01:30 LERT 300130Z 06005KT CAVOK 14/06 Q1023 NOSIG
LEMG - Málaga, Spain
Distancia de la estación: ESE 157km
Actualización: 30/10/2020 02:30
Despejado
Despejado
 Viento de O
Viento: O 13 km/h
Temperatura: 14°C
Rocío: 8°C
Humedad: 67%
Barómetro: 1025 hPa
Resumen: Despejado
Visibilidad: mayor de 10 km
2020/10/30 01:30 LEMG 300130Z 28007KT CAVOK 14/08 Q1025 NOSIG
LEBA - Córdoba, Spain
Distancia de la estación: ENE 115km
Actualización: 30/10/2020 02:30
Despejado
Despejado
 Viento de variable
Viento: variable 2 km/h
Temperatura: 12°C
Rocío: 10°C
Humedad: 88%
Barómetro: 1024 hPa
Resumen: Despejado
Visibilidad: mayor de 10 km
2020/10/30 01:30 LEBA 300130Z AUTO VRB01KT CAVOK 12/10 Q1024
 
LEGR - Granada, Spain
Distancia de la estación: E 198km
Actualización: 30/10/2020 02:30
Despejado
Despejado
 Viento de calm
Viento: Calma
Temperatura: 9°C
Rocío: 7°C
Humedad: 87%
Barómetro: 1026 hPa
Resumen: Despejado
Visibilidad: mayor de 10 km
2020/10/30 01:30 LEGR 300130Z AUTO 00000KT CAVOK 09/07 Q1026
LEAM - Almería, Spain
Distancia de la estación: E 326km
Actualización: 30/10/2020 02:30
Despejado
Despejado
 Viento de NE
Viento: NE 11 km/h
Temperatura: 17°C
Rocío: 12°C
Humedad: 73%
Barómetro: 1025 hPa
Resumen: Despejado
Visibilidad: mayor de 10 km
2020/10/30 01:30 LEAM 300130Z AUTO 04006KT CAVOK 17/12 Q1025
LEMD - Madrid/Barajas, Spain
Distancia de la estación: NNE 402km
Actualización: 30/10/2020 02:30
Despejado
Despejado
 Viento de N
Viento: N 6 km/h
Temperatura: 6°C
Rocío: 5°C
Humedad: 93%
Barómetro: 1028 hPa
Resumen: Despejado
Visibilidad: mayor de 10 km
2020/10/30 01:30 LEMD 300130Z 35003KT CAVOK 06/05 Q1028 NOSIG
 
LEVD - Valladolid, Spain
Distancia de la estación: N 492km
Actualización: 30/10/2020 02:30
Despejado
Despejado
 Viento de E
Viento: E 6 km/h
Temperatura: 6°C
Rocío: 5°C
Humedad: 93%
Barómetro: 1027 hPa
Nubes: Despejado
Visibilidad: 9 km
2020/10/30 01:30 LEVD 300130Z AUTO 08003KT 9000 2300NE NCD 06/05 Q1027
LEBL - Barcelona, Spain
Distancia de la estación: NE 816km
Actualización: 30/10/2020 02:30
Poco nuboso
Poco nuboso
 Viento de NO
Viento: NO 15 km/h
Temperatura: 13°C
Rocío: 10°C
Humedad: 82%
Barómetro: 1025 hPa
Nubes: Poco nuboso
Visibilidad: 10 km
Detalles de las nubes: Poco nuboso 610 m
2020/10/30 01:30 LEBL 300130Z 32008KT 9999 FEW020 13/10 Q1025 NOSIG
LEVC - Valencia, Spain
Distancia de la estación: ENE 535km
Actualización: 30/10/2020 02:30
Poco nuboso
Poco nuboso
 Viento de ONO
Viento: ONO 7 km/h
Temperatura: 11°C
Rocío: 10°C
Humedad: 94%
Barómetro: 1026 hPa
Nubes: Poco nuboso
Visibilidad: 10 km
Detalles de las nubes: Poco nuboso 457 m
2020/10/30 01:30 LEVC 300130Z 29004KT 9999 FEW015 11/10 Q1026 NOSIG